Time;durP1;ratioP1;P1;durP2;ratioP2;P2;SDS_P1;SDS_P2;PMS_P1;PMS_P2;Temp;Humidity;BMP_temperature;BMP_pressure;BME280_temperature;BME280_humidity;BME280_pressure;Samples;Min_cycle;Max_cycle;Signal;HPM_P1;HPM_P2
2023/10/29 00:01:28;;;;;;;0.30;0.20;;;;;;;13.99;99.86;98566.31;5032668;28;20497;-48
2023/10/29 00:03:55;;;;;;;0.30;0.20;;;;;;;13.91;100.00;98566.84;5020755;28;20488;-48
2023/10/29 00:06:22;;;;;;;0.30;0.20;;;;;;;14.01;100.00;98567.91;5023197;28;20459;-48
2023/10/29 00:08:49;;;;;;;0.30;0.20;;;;;;;14.07;100.00;98555.94;5030497;28;20451;-48
2023/10/29 00:11:15;;;;;;;0.30;0.20;;;;;;;14.22;99.55;98568.19;5023612;28;20835;-49
2023/10/29 00:13:43;;;;;;;0.30;0.20;;;;;;;13.96;100.00;98567.38;5025669;28;20466;-48
2023/10/29 00:16:11;;;;;;;0.30;0.20;;;;;;;14.19;99.26;98561.25;5012419;28;20838;-48
2023/10/29 00:18:38;;;;;;;0.30;0.20;;;;;;;14.22;99.53;98557.50;5030499;28;20423;-48
2023/10/29 00:21:04;;;;;;;0.30;0.20;;;;;;;14.24;98.63;98556.44;5027808;28;20519;-50
2023/10/29 00:23:32;;;;;;;0.30;0.20;;;;;;;14.07;98.58;98551.44;5018105;28;20454;-48
2023/10/29 00:25:58;;;;;;;0.30;0.20;;;;;;;14.07;99.63;98551.44;5032267;28;20430;-48
2023/10/29 00:28:25;;;;;;;0.30;0.20;;;;;;;14.17;98.62;98560.53;5031868;28;20451;-48
2023/10/29 00:30:55;;;;;;;0.30;0.20;;;;;;;14.00;99.37;98549.31;5030786;28;20432;-49
2023/10/29 00:33:22;;;;;;;0.30;0.20;;;;;;;14.11;99.23;98554.75;5031248;28;20474;-49
2023/10/29 00:35:49;;;;;;;0.30;0.20;;;;;;;14.16;99.37;98552.63;5032212;28;20495;-48
2023/10/29 00:38:15;;;;;;;0.30;0.20;;;;;;;14.37;98.37;98560.91;5023542;28;20447;-48
2023/10/29 00:40:42;;;;;;;0.30;0.20;;;;;;;14.39;98.53;98567.88;5019193;28;20488;-49
2023/10/29 00:43:13;;;;;;;0.30;0.20;;;;;;;14.44;97.92;98586.28;5031890;28;20450;-49
2023/10/29 00:45:41;;;;;;;0.30;0.20;;;;;;;14.43;98.96;98580.03;5029756;28;20459;-48
2023/10/29 00:48:10;;;;;;;0.30;0.20;;;;;;;14.34;98.67;98583.38;5031884;28;20455;-48
2023/10/29 00:50:37;;;;;;;0.30;0.20;;;;;;;14.32;99.16;98587.97;5031051;28;20993;-48
2023/10/29 00:53:03;;;;;;;0.30;0.20;;;;;;;14.16;100.00;98580.19;5019602;28;20492;-48
2023/10/29 00:55:30;;;;;;;0.30;0.20;;;;;;;14.23;100.00;98568.09;5031595;28;20956;-48
2023/10/29 00:57:57;;;;;;;0.30;0.20;;;;;;;14.30;98.96;98573.88;5032034;28;20452;-48
2023/10/29 01:00:24;;;;;;;0.30;0.20;;;;;;;14.22;99.93;98566.38;5018587;28;20460;-48
2023/10/29 01:02:50;;;;;;;0.30;0.20;;;;;;;14.30;97.67;98571.19;5032952;28;20462;-49
2023/10/29 01:05:17;;;;;;;0.30;0.20;;;;;;;14.33;97.67;98557.59;5017899;28;20480;-49
2023/10/29 01:07:43;;;;;;;0.30;0.20;;;;;;;14.45;97.57;98554.09;5033940;28;20430;-48
2023/10/29 01:10:11;;;;;;;0.30;0.20;;;;;;;14.63;96.90;98551.03;5035273;28;20546;-49
2023/10/29 01:12:38;;;;;;;0.30;0.20;;;;;;;14.74;96.44;98546.59;5025873;28;20476;-48
2023/10/29 01:15:05;;;;;;;0.30;0.20;;;;;;;14.48;97.24;98526.25;5029121;28;20501;-49
2023/10/29 01:17:32;;;;;;;0.30;0.20;;;;;;;14.34;98.00;98510.34;5024389;28;20422;-48
2023/10/29 01:19:58;;;;;;;0.30;0.20;;;;;;;14.15;98.59;98492.13;5035191;28;20489;-48
2023/10/29 01:22:25;;;;;;;0.30;0.20;;;;;;;14.29;98.20;98491.13;5020186;28;20531;-48
2023/10/29 01:24:53;;;;;;;0.30;0.20;;;;;;;14.44;98.12;98476.66;5031229;28;20483;-48
2023/10/29 01:27:21;;;;;;;0.30;0.20;;;;;;;14.35;98.31;98475.47;5031929;28;20477;-48
2023/10/29 01:29:48;;;;;;;0.30;0.20;;;;;;;14.43;97.90;98486.47;5031775;28;20422;-49
2023/10/29 01:32:14;;;;;;;0.30;0.20;;;;;;;14.58;97.48;98478.31;5035001;28;21066;-48
2023/10/29 01:34:41;;;;;;;0.30;0.20;;;;;;;14.65;97.53;98480.41;5028545;28;20465;-49
2023/10/29 01:37:07;;;;;;;0.30;0.20;;;;;;;14.68;97.56;98495.41;5029539;28;20907;-48
2023/10/29 01:39:34;;;;;;;0.30;0.20;;;;;;;14.74;96.75;98474.38;5031776;28;20475;-50
2023/10/29 01:42:01;;;;;;;0.30;0.20;;;;;;;14.67;96.32;98466.97;5034792;28;20533;-48
2023/10/29 01:44:27;;;;;;;0.30;0.20;;;;;;;14.46;96.99;98448.00;5034674;28;20468;-48
2023/10/29 01:46:54;;;;;;;0.30;0.20;;;;;;;14.39;97.27;98444.91;5034880;28;20513;-48
2023/10/29 01:49:20;;;;;;;0.30;0.20;;;;;;;14.50;97.20;98446.78;5030712;28;20473;-48
2023/10/29 01:51:47;;;;;;;0.30;0.20;;;;;;;14.60;97.01;98442.47;5015162;28;20791;-48
2023/10/29 01:54:13;;;;;;;0.30;0.20;;;;;;;14.44;96.76;98415.19;5031979;28;20466;-48
2023/10/29 01:56:40;;;;;;;0.30;0.20;;;;;;;14.42;96.23;98414.41;5029519;28;20505;-48
2023/10/29 01:59:07;;;;;;;0.30;0.20;;;;;;;14.65;95.78;98426.06;5034618;28;20459;-48
2023/10/29 02:01:33;;;;;;;0.30;0.20;;;;;;;14.74;95.07;98414.69;5034696;28;20542;-48
2023/10/29 02:04:00;;;;;;;0.30;0.20;;;;;;;14.83;94.37;98451.47;5022062;28;21052;-50
2023/10/29 02:06:26;;;;;;;0.30;0.20;;;;;;;14.95;93.75;98487.13;5025700;28;20448;-48
2023/10/29 02:08:53;;;;;;;0.30;0.20;;;;;;;14.83;95.23;98515.66;5032309;28;20866;-48
2023/10/29 02:11:20;;;;;;;0.30;0.20;;;;;;;14.78;95.51;98524.00;5030081;28;20456;-48
2023/10/29 02:13:47;;;;;;;0.30;0.20;;;;;;;14.82;95.55;98541.56;5019916;28;20497;-48
2023/10/29 02:16:13;;;;;;;0.30;0.20;;;;;;;14.84;95.86;98543.25;5022869;28;20431;-48
2023/10/29 02:18:40;;;;;;;0.30;0.20;;;;;;;14.75;96.38;98544.78;5032380;28;20455;-48
2023/10/29 02:21:06;;;;;;;0.30;0.20;;;;;;;14.75;96.85;98542.09;5029298;28;20456;-48
2023/10/29 02:23:34;;;;;;;0.30;0.20;;;;;;;14.83;96.54;98521.00;5020670;28;20462;-49
2023/10/29 02:26:00;;;;;;;0.30;0.20;;;;;;;14.84;96.29;98522.72;5021858;28;20435;-49
2023/10/29 02:28:27;;;;;;;0.30;0.20;;;;;;;14.77;97.90;98510.75;5033285;28;20494;-48
2023/10/29 02:30:53;;;;;;;0.30;0.20;;;;;;;14.55;98.28;98500.81;5033987;28;20433;-48
2023/10/29 02:33:20;;;;;;;0.30;0.20;;;;;;;14.49;99.27;98477.16;5033774;28;20834;-48
2023/10/29 02:35:47;;;;;;;0.30;0.20;;;;;;;14.41;98.80;98471.53;5016331;28;21027;-48
2023/10/29 02:38:14;;;;;;;0.30;0.20;;;;;;;14.38;98.98;98472.56;5025625;28;20506;-48
2023/10/29 02:40:41;;;;;;;0.40;0.20;;;;;;;14.62;99.35;98498.50;5022094;28;20487;-49
2023/10/29 02:43:07;;;;;;;0.30;0.20;;;;;;;14.41;100.00;98500.94;5033427;28;20467;-49
2023/10/29 02:45:34;;;;;;;0.30;0.20;;;;;;;14.40;100.00;98491.19;5033752;28;20483;-49
2023/10/29 02:48:00;;;;;;;0.30;0.20;;;;;;;14.31;100.00;98481.16;5033652;28;20498;-49
2023/10/29 02:50:27;;;;;;;0.30;0.20;;;;;;;14.30;100.00;98477.66;5032247;28;20502;-49
2023/10/29 02:52:53;;;;;;;0.30;0.20;;;;;;;14.27;100.00;98479.69;5032844;28;20972;-49
2023/10/29 02:55:20;;;;;;;0.30;0.20;;;;;;;14.32;100.00;98491.75;5033543;28;20937;-49
2023/10/29 02:57:46;;;;;;;0.30;0.20;;;;;;;14.29;100.00;98496.47;5033434;28;20483;-49
2023/10/29 03:00:13;;;;;;;0.30;0.20;;;;;;;14.20;100.00;98496.16;5033325;28;20451;-49
2023/10/29 03:02:40;;;;;;;0.30;0.20;;;;;;;14.05;100.00;98493.75;5005803;28;20511;-49
2023/10/29 03:05:10;;;;;;;0.30;0.20;;;;;;;14.12;100.00;98503.03;5013610;28;20453;-51
2023/10/29 03:07:37;;;;;;;0.30;0.20;;;;;;;14.19;100.00;98501.63;5010641;28;20450;-48
2023/10/29 03:10:07;;;;;;;0.30;0.20;;;;;;;14.02;100.00;98493.97;5033041;28;20918;-49
2023/10/29 03:12:33;;;;;;;0.30;0.20;;;;;;;13.88;100.00;98469.09;5033182;28;20569;-48
2023/10/29 03:15:00;;;;;;;0.30;0.20;;;;;;;13.99;100.00;98503.06;5031277;28;20488;-48
2023/10/29 03:17:27;;;;;;;0.30;0.20;;;;;;;13.98;100.00;98496.00;5021916;28;20960;-48
2023/10/29 03:19:53;;;;;;;0.30;0.20;;;;;;;14.05;100.00;98493.75;5019521;28;20449;-48
2023/10/29 03:22:20;;;;;;;0.30;0.20;;;;;;;13.99;100.00;98486.19;5018927;28;20535;-48
2023/10/29 03:24:46;;;;;;;0.30;0.20;;;;;;;14.00;100.00;98499.41;5028194;28;20465;-47
2023/10/29 03:27:14;;;;;;;0.30;0.20;;;;;;;13.81;100.00;98491.00;5032894;28;20928;-50
2023/10/29 03:29:40;;;;;;;0.30;0.20;;;;;;;13.78;100.00;98491.22;5028405;28;20506;-49
2023/10/29 03:32:07;;;;;;;0.30;0.20;;;;;;;13.81;100.00;98493.66;5024259;28;20443;-48
2023/10/29 03:34:33;;;;;;;0.30;0.20;;;;;;;14.05;100.00;98494.59;5027820;28;20475;-47
2023/10/29 03:37:00;;;;;;;0.30;0.20;;;;;;;13.99;100.00;98488.84;5028598;28;20487;-48
2023/10/29 03:39:28;;;;;;;0.30;0.20;;;;;;;14.08;100.00;98489.03;5016122;28;20470;-48
2023/10/29 03:41:55;;;;;;;0.30;0.20;;;;;;;14.09;100.00;98487.19;5032588;28;20861;-47
2023/10/29 03:44:21;;;;;;;0.30;0.20;;;;;;;14.10;100.00;98483.56;5032632;28;20448;-47
2023/10/29 03:46:52;;;;;;;0.30;0.20;;;;;;;14.01;100.00;98487.78;5022625;28;20487;-47
2023/10/29 03:49:18;;;;;;;0.30;0.20;;;;;;;14.20;100.00;98482.78;5032703;28;20482;-47
2023/10/29 03:51:46;;;;;;;0.30;0.20;;;;;;;14.09;100.00;98481.84;5031904;28;20550;-47
2023/10/29 03:54:13;;;;;;;0.30;0.20;;;;;;;14.41;100.00;98485.75;5032310;28;20533;-47
2023/10/29 03:56:40;;;;;;;0.30;0.20;;;;;;;14.44;98.06;98490.88;5032435;28;20475;-47
2023/10/29 03:59:06;;;;;;;0.30;0.20;;;;;;;14.66;97.67;98489.28;5022683;28;20451;-47
2023/10/29 04:01:33;;;;;;;0.30;0.20;;;;;;;14.75;96.57;98496.63;5025662;28;20495;-47
2023/10/29 04:03:59;;;;;;;0.30;0.20;;;;;;;14.90;96.07;98491.97;5020524;28;20476;-48
2023/10/29 04:06:26;;;;;;;0.30;0.20;;;;;;;14.97;95.06;98496.75;5022563;28;20463;-47
2023/10/29 04:08:52;;;;;;;0.30;0.20;;;;;;;15.02;94.55;98491.88;5029310;28;20455;-47
2023/10/29 04:11:19;;;;;;;0.30;0.20;;;;;;;15.15;94.69;98499.00;5032279;28;20545;-47
2023/10/29 04:13:46;;;;;;;0.30;0.20;;;;;;;15.20;94.27;98492.31;5023603;28;20482;-47
2023/10/29 04:16:13;;;;;;;0.30;0.20;;;;;;;15.28;94.11;98489.91;5003369;28;20511;-47
2023/10/29 04:18:40;;;;;;;0.30;0.20;;;;;;;15.14;95.15;98497.28;5030550;28;20509;-47
2023/10/29 04:21:06;;;;;;;0.30;0.20;;;;;;;15.25;94.56;98508.03;5027426;28;20455;-48
2023/10/29 04:23:34;;;;;;;0.30;0.20;;;;;;;15.18;95.61;98517.50;5017672;28;20518;-47
2023/10/29 04:26:01;;;;;;;0.30;0.20;;;;;;;15.06;96.93;98522.78;5032404;28;20468;-48
2023/10/29 04:28:27;;;;;;;0.30;0.20;;;;;;;15.21;97.15;98522.59;5025522;28;20908;-47
2023/10/29 04:30:55;;;;;;;0.30;0.20;;;;;;;15.19;97.28;98517.38;5032367;28;20453;-48
2023/10/29 04:33:23;;;;;;;0.30;0.20;;;;;;;15.20;97.00;98510.19;5031938;28;20453;-48
2023/10/29 04:35:50;;;;;;;0.30;0.20;;;;;;;15.06;98.18;98519.25;5033234;28;20473;-49
2023/10/29 04:38:16;;;;;;;0.30;0.20;;;;;;;15.11;98.03;98520.66;5027105;28;20494;-48
2023/10/29 04:40:44;;;;;;;0.30;0.20;;;;;;;15.09;99.25;98511.88;5014672;28;20846;-48
2023/10/29 04:43:10;;;;;;;0.30;0.20;;;;;;;15.19;98.06;98512.00;5035680;28;20907;-48
2023/10/29 04:45:37;;;;;;;0.30;0.20;;;;;;;15.19;97.80;98517.38;5032864;28;20461;-48
2023/10/29 04:48:04;;;;;;;0.30;0.20;;;;;;;15.20;97.53;98511.03;5032559;28;20490;-48
2023/10/29 04:50:31;;;;;;;0.30;0.23;;;;;;;15.27;96.75;98498.91;5025173;28;20448;-50
2023/10/29 04:52:58;;;;;;;0.30;0.20;;;;;;;15.35;97.68;98495.63;5015136;28;20971;-48
2023/10/29 04:55:24;;;;;;;0.30;0.20;;;;;;;15.20;97.19;98503.00;5024052;28;20465;-48
2023/10/29 04:57:51;;;;;;;0.30;0.20;;;;;;;15.13;97.41;98496.44;5022323;28;20465;-48
2023/10/29 05:00:17;;;;;;;0.30;0.20;;;;;;;15.16;97.86;98498.03;5025006;28;20480;-48
2023/10/29 05:02:44;;;;;;;0.30;0.20;;;;;;;15.04;98.46;98495.31;5033765;28;20479;-48
2023/10/29 05:05:11;;;;;;;0.30;0.20;;;;;;;15.00;98.85;98496.50;5015965;28;20445;-48
2023/10/29 05:07:38;;;;;;;0.30;0.20;;;;;;;14.94;99.79;98490.75;5033364;28;20423;-48
2023/10/29 05:10:05;;;;;;;0.30;0.20;;;;;;;15.03;99.79;98500.78;5026626;28;20423;-48
2023/10/29 05:12:31;;;;;;;0.30;0.20;;;;;;;14.93;100.00;98505.94;5030630;28;20499;-48
2023/10/29 05:14:58;;;;;;;0.30;0.20;;;;;;;15.04;100.00;98510.50;5031076;28;20551;-48
2023/10/29 05:17:24;;;;;;;0.30;0.20;;;;;;;14.92;100.00;98522.13;5023311;28;20429;-48
2023/10/29 05:19:51;;;;;;;0.30;0.20;;;;;;;14.67;100.00;98521.28;5029769;28;20472;-48
2023/10/29 05:22:18;;;;;;;0.30;0.20;;;;;;;14.91;100.00;98521.28;5022628;28;20542;-48
2023/10/29 05:24:44;;;;;;;0.30;0.20;;;;;;;14.93;100.00;98529.19;5023323;28;20441;-48
2023/10/29 05:27:11;;;;;;;0.30;0.20;;;;;;;14.78;100.00;98529.34;5032916;28;20425;-48
2023/10/29 05:29:37;;;;;;;0.30;0.20;;;;;;;14.80;100.00;98529.22;5035310;28;20479;-48
2023/10/29 05:32:05;;;;;;;0.30;0.20;;;;;;;14.74;100.00;98529.69;5026219;28;20977;-48
2023/10/29 05:34:31;;;;;;;0.30;0.20;;;;;;;14.80;100.00;98539.94;5034722;28;20620;-47
2023/10/29 05:36:57;;;;;;;0.30;0.20;;;;;;;14.64;100.00;98539.38;5031281;28;20448;-48
2023/10/29 05:39:24;;;;;;;0.30;0.20;;;;;;;14.47;100.00;98541.44;5030587;28;20522;-47
2023/10/29 05:41:50;;;;;;;0.30;0.20;;;;;;;14.54;100.00;98549.91;5017506;28;20518;-47
2023/10/29 05:44:17;;;;;;;0.30;0.20;;;;;;;14.57;100.00;98543.47;5022750;28;20423;-47
2023/10/29 05:46:43;;;;;;;0.30;0.20;;;;;;;14.60;100.00;98540.56;5029737;28;20456;-47
2023/10/29 05:49:10;;;;;;;0.30;0.20;;;;;;;14.53;100.00;98524.13;5034196;28;20422;-47
2023/10/29 05:51:36;;;;;;;0.30;0.20;;;;;;;14.50;100.00;98514.47;5029580;28;20483;-47
2023/10/29 05:54:03;;;;;;;0.30;0.20;;;;;;;14.55;100.00;98530.22;5009504;28;21014;-48
2023/10/29 05:56:29;;;;;;;0.30;0.20;;;;;;;14.70;100.00;98537.09;5030665;28;20546;-48
2023/10/29 05:58:56;;;;;;;0.30;0.20;;;;;;;14.76;100.00;98543.81;5020769;28;20478;-47
2023/10/29 06:01:22;;;;;;;0.30;0.20;;;;;;;14.55;100.00;98540.91;5020058;28;20457;-48
2023/10/29 06:03:49;;;;;;;0.30;0.20;;;;;;;14.57;100.00;98547.00;5019345;28;20454;-47
2023/10/29 06:06:16;;;;;;;0.30;0.20;;;;;;;14.54;100.00;98543.69;5017075;28;20460;-48
2023/10/29 06:08:42;;;;;;;0.30;0.20;;;;;;;14.73;100.00;98517.31;5030383;28;20571;-48
2023/10/29 06:11:10;;;;;;;0.30;0.20;;;;;;;14.58;100.00;98459.59;5034675;28;20944;-48
2023/10/29 06:13:36;;;;;;;0.30;0.20;;;;;;;14.63;100.00;98447.59;5033356;28;20475;-47
2023/10/29 06:16:09;;;;;;;0.30;0.20;;;;;;;14.65;100.00;98480.41;5024150;28;20927;-48
2023/10/29 06:18:36;;;;;;;0.40;0.20;;;;;;;14.72;100.00;98473.66;5032447;28;20547;-48
2023/10/29 06:21:03;;;;;;;0.30;0.20;;;;;;;14.75;100.00;98480.59;5030044;28;20448;-48
2023/10/29 06:23:29;;;;;;;0.30;0.20;;;;;;;14.73;100.00;98482.53;5015388;28;20455;-47
2023/10/29 06:25:56;;;;;;;0.30;0.20;;;;;;;14.62;100.00;98495.84;5016500;28;20452;-48
2023/10/29 06:28:22;;;;;;;0.30;0.20;;;;;;;14.76;100.00;98501.88;5015290;28;20522;-48
2023/10/29 06:30:49;;;;;;;0.30;0.20;;;;;;;14.71;100.00;98513.88;5013980;28;20925;-48
2023/10/29 06:33:15;;;;;;;0.30;0.20;;;;;;;14.72;100.00;98516.44;5018292;28;20503;-49
2023/10/29 06:35:42;;;;;;;0.30;0.20;;;;;;;14.59;100.00;98514.78;5023347;28;20551;-49
2023/10/29 06:38:08;;;;;;;0.30;0.20;;;;;;;14.47;100.00;98490.66;5016149;28;21052;-48
2023/10/29 06:40:35;;;;;;;0.30;0.20;;;;;;;14.63;100.00;98506.41;5020850;28;20497;-49
2023/10/29 06:43:01;;;;;;;0.30;0.20;;;;;;;14.55;100.00;98513.31;5026543;28;20450;-49
2023/10/29 06:45:28;;;;;;;0.30;0.20;;;;;;;14.40;100.00;98510.75;5013415;28;20459;-49
2023/10/29 06:47:54;;;;;;;0.30;0.20;;;;;;;14.60;100.00;98508.47;5018432;28;20918;-48
2023/10/29 06:50:21;;;;;;;0.30;0.20;;;;;;;14.57;100.00;98506.88;5024677;28;20430;-48
2023/10/29 06:52:48;;;;;;;0.30;0.20;;;;;;;14.66;100.00;98508.84;5033675;28;20553;-48
2023/10/29 06:55:14;;;;;;;0.30;0.20;;;;;;;14.64;100.00;98501.91;5033777;28;20494;-48
2023/10/29 06:57:41;;;;;;;0.30;0.20;;;;;;;14.77;100.00;98490.19;5033375;28;20469;-50
2023/10/29 07:00:08;;;;;;;0.30;0.20;;;;;;;14.86;100.00;98491.34;5033375;28;20438;-48
2023/10/29 07:02:35;;;;;;;0.30;0.20;;;;;;;14.70;100.00;98478.28;5015393;28;20537;-48
2023/10/29 07:05:03;;;;;;;0.30;0.20;;;;;;;14.56;100.00;98472.25;5013958;28;20572;-49
2023/10/29 07:07:30;;;;;;;0.30;0.20;;;;;;;14.67;100.00;98477.66;5030046;28;20460;-48
2023/10/29 07:09:57;;;;;;;0.30;0.20;;;;;;;14.66;100.00;98462.53;5033449;28;20449;-48
2023/10/29 07:12:23;;;;;;;0.30;0.20;;;;;;;14.72;100.00;98452.25;5033200;28;20449;-48
2023/10/29 07:14:50;;;;;;;0.30;0.20;;;;;;;14.91;100.00;98424.09;5028202;28;20498;-49
2023/10/29 07:17:16;;;;;;;0.30;0.20;;;;;;;14.72;100.00;98419.31;5021013;28;20486;-48
2023/10/29 07:19:43;;;;;;;0.30;0.20;;;;;;;14.83;100.00;98427.38;5021138;28;20506;-48
2023/10/29 07:22:09;;;;;;;0.30;0.20;;;;;;;14.96;100.00;98454.91;5019426;28;20539;-48
2023/10/29 07:24:36;;;;;;;0.30;0.20;;;;;;;15.09;100.00;98461.03;5027259;28;20435;-48
2023/10/29 07:27:03;;;;;;;0.30;0.20;;;;;;;15.01;100.00;98466.09;5018256;28;20427;-48
2023/10/29 07:29:29;;;;;;;0.30;0.20;;;;;;;15.09;100.00;98453.00;5020917;28;20472;-48
2023/10/29 07:31:56;;;;;;;0.30;0.20;;;;;;;14.84;100.00;98463.00;5029628;28;20462;-48
2023/10/29 07:34:22;;;;;;;0.30;0.20;;;;;;;14.81;100.00;98472.13;5019734;28;20431;-48
2023/10/29 07:36:49;;;;;;;0.30;0.20;;;;;;;14.92;100.00;98487.34;5020252;28;20492;-48
2023/10/29 07:39:15;;;;;;;0.30;0.20;;;;;;;15.03;100.00;98493.59;5026447;28;20510;-48
2023/10/29 07:41:42;;;;;;;0.30;0.20;;;;;;;15.18;100.00;98488.03;5021128;28;20825;-49
2023/10/29 07:44:08;;;;;;;0.30;0.20;;;;;;;15.12;100.00;98492.06;5017926;28;20431;-50
2023/10/29 07:46:35;;;;;;;0.30;0.20;;;;;;;15.27;100.00;98482.00;5019649;28;20948;-49
2023/10/29 07:49:02;;;;;;;0.30;0.20;;;;;;;15.27;100.00;98466.78;5021252;28;20874;-49
2023/10/29 07:51:29;;;;;;;0.30;0.20;;;;;;;14.92;100.00;98445.38;5024985;28;20493;-47
2023/10/29 07:53:56;;;;;;;0.30;0.20;;;;;;;14.97;100.00;98440.56;5019829;28;20505;-48
2023/10/29 07:56:26;;;;;;;0.30;0.20;;;;;;;15.20;100.00;98456.66;5027829;28;20575;-47
2023/10/29 07:58:52;;;;;;;0.30;0.20;;;;;;;15.09;100.00;98458.34;5032317;28;20784;-48
2023/10/29 08:01:19;;;;;;;0.30;0.20;;;;;;;15.36;100.00;98470.59;5025318;28;20456;-48
2023/10/29 08:03:46;;;;;;;0.30;0.20;;;;;;;15.30;100.00;98446.97;5022492;28;20824;-49
2023/10/29 08:06:13;;;;;;;0.30;0.20;;;;;;;15.62;100.00;98431.94;5022030;28;20949;-47
2023/10/29 08:08:40;;;;;;;0.30;0.20;;;;;;;15.58;100.00;98427.75;5025990;28;20463;-48
2023/10/29 08:11:20;;;;;;;0.30;0.20;;;;;;;15.51;100.00;98449.81;5015917;28;20480;-47
2023/10/29 08:13:46;;;;;;;0.30;0.20;;;;;;;15.59;100.00;98453.59;5024787;28;20434;-49
2023/10/29 08:16:13;;;;;;;0.30;0.20;;;;;;;15.49;100.00;98470.47;5020798;28;20471;-48
2023/10/29 08:18:40;;;;;;;0.30;0.20;;;;;;;15.49;100.00;98500.81;5013269;28;20793;-47
2023/10/29 08:21:08;;;;;;;0.30;0.20;;;;;;;15.57;100.00;98521.63;5019052;28;20457;-48
2023/10/29 08:23:34;;;;;;;0.30;0.20;;;;;;;15.63;100.00;98531.91;5018475;28;21005;-47
2023/10/29 08:26:01;;;;;;;0.30;0.20;;;;;;;15.68;100.00;98537.75;5032404;28;20459;-47
2023/10/29 08:28:28;;;;;;;0.30;0.20;;;;;;;15.75;100.00;98530.94;5032235;28;20786;-48
2023/10/29 08:30:55;;;;;;;0.30;0.20;;;;;;;15.69;100.00;98524.22;5032240;28;20487;-48
2023/10/29 08:33:21;;;;;;;0.30;0.20;;;;;;;15.90;100.00;98524.41;5032042;28;20904;-48
2023/10/29 08:35:48;;;;;;;0.30;0.20;;;;;;;15.95;100.00;98529.38;5031990;28;20538;-48
2023/10/29 08:38:15;;;;;;;0.30;0.20;;;;;;;15.92;100.00;98543.03;5024020;28;20422;-48
2023/10/29 08:40:41;;;;;;;0.30;0.20;;;;;;;15.81;100.00;98557.25;5032459;28;20454;-48
2023/10/29 08:43:08;;;;;;;0.30;0.20;;;;;;;16.02;100.00;98564.56;5032024;28;20579;-48
2023/10/29 08:45:35;;;;;;;0.30;0.20;;;;;;;16.07;100.00;98563.25;5032117;28;20448;-48
2023/10/29 08:48:08;;;;;;;0.30;0.20;;;;;;;16.02;100.00;98575.28;5008071;28;20448;-48
2023/10/29 08:50:35;;;;;;;0.30;0.20;;;;;;;16.10;100.00;98575.56;5031782;28;20824;-47
2023/10/29 08:53:01;;;;;;;0.30;0.20;;;;;;;16.05;100.00;98581.28;5020017;28;20819;-48
2023/10/29 08:55:28;;;;;;;0.30;0.20;;;;;;;16.12;100.00;98581.66;5032165;28;20553;-47
2023/10/29 08:57:55;;;;;;;0.30;0.20;;;;;;;16.34;100.00;98580.81;5024271;28;20456;-48
2023/10/29 09:00:21;;;;;;;0.30;0.20;;;;;;;16.30;100.00;98578.34;5026641;28;20430;-49
2023/10/29 09:02:48;;;;;;;0.30;0.20;;;;;;;16.22;99.89;98580.81;5029167;28;20457;-48
2023/10/29 09:05:15;;;;;;;0.30;0.20;;;;;;;16.29;99.43;98584.69;5013328;28;20845;-49
2023/10/29 09:07:41;;;;;;;0.30;0.20;;;;;;;16.34;99.41;98581.66;5030290;28;20445;-48
2023/10/29 09:10:08;;;;;;;0.30;0.20;;;;;;;16.19;99.23;98590.94;5031986;28;20426;-49
2023/10/29 09:12:35;;;;;;;0.30;0.20;;;;;;;16.02;99.15;98578.81;5014338;28;20445;-48
2023/10/29 09:15:02;;;;;;;0.30;0.20;;;;;;;16.12;98.59;98584.34;5029933;28;20456;-48
2023/10/29 09:17:28;;;;;;;0.30;0.20;;;;;;;16.18;98.18;98581.19;5020555;28;20532;-49
2023/10/29 09:19:55;;;;;;;0.30;0.20;;;;;;;16.24;98.65;98583.38;5031984;28;20956;-48
2023/10/29 09:22:21;;;;;;;0.30;0.20;;;;;;;16.39;97.77;98586.66;5019417;28;20486;-48
2023/10/29 09:24:48;;;;;;;0.30;0.20;;;;;;;16.32;97.50;98583.63;5030679;28;20772;-48
2023/10/29 09:27:15;;;;;;;0.30;0.20;;;;;;;16.27;98.17;98580.44;5035284;28;20418;-48
2023/10/29 09:29:41;;;;;;;0.30;0.20;;;;;;;16.28;98.53;98564.22;5035081;28;20899;-49
2023/10/29 09:32:08;;;;;;;0.30;0.20;;;;;;;16.19;98.70;98564.13;5026127;28;20830;-48
2023/10/29 09:34:35;;;;;;;0.30;0.20;;;;;;;16.17;98.73;98574.09;5031383;28;20546;-48
2023/10/29 09:37:01;;;;;;;0.30;0.20;;;;;;;16.23;98.97;98587.88;5030627;28;20585;-48
2023/10/29 09:39:28;;;;;;;0.30;0.20;;;;;;;16.26;98.91;98593.00;5031399;28;20487;-48
2023/10/29 09:42:05;;;;;;;0.30;0.20;;;;;;;16.42;98.61;98592.63;5035096;28;20601;-48
2023/10/29 09:44:33;;;;;;;0.30;0.20;;;;;;;16.49;97.42;98585.81;5034749;28;20454;-48
2023/10/29 09:47:12;;;;;;;0.30;0.20;;;;;;;16.33;97.93;98576.44;5034867;28;21002;-48
2023/10/29 09:49:39;;;;;;;0.30;0.20;;;;;;;16.75;97.81;98573.00;5034882;28;20468;-48
2023/10/29 09:52:06;;;;;;;0.30;0.20;;;;;;;16.78;96.62;98583.47;5021912;28;20539;-48
2023/10/29 09:54:33;;;;;;;0.30;0.20;;;;;;;16.72;96.89;98593.84;5028419;28;20424;-48
2023/10/29 09:57:00;;;;;;;0.30;0.20;;;;;;;16.99;96.36;98596.97;5027797;28;20856;-48
2023/10/29 09:59:26;;;;;;;0.30;0.20;;;;;;;16.91;95.28;98585.16;5034757;28;20531;-48
2023/10/29 10:01:53;;;;;;;0.30;0.20;;;;;;;16.91;96.18;98585.16;5035506;28;20521;-49
2023/10/29 10:04:24;;;;;;;0.30;0.20;;;;;;;17.08;95.39;98587.31;5019179;28;20467;-50
2023/10/29 10:06:53;;;;;;;0.30;0.20;;;;;;;17.14;95.25;98571.56;5026714;28;20445;-51
2023/10/29 10:09:19;;;;;;;0.30;0.20;;;;;;;17.04;95.44;98591.22;5034420;28;20447;-51
2023/10/29 10:12:01;;;;;;;0.30;0.20;;;;;;;17.05;95.40;98593.78;5034234;28;20460;-51
2023/10/29 10:14:27;;;;;;;0.30;0.20;;;;;;;17.02;95.10;98577.94;5034804;28;20450;-51
2023/10/29 10:17:08;;;;;;;0.30;0.20;;;;;;;17.01;94.85;98578.91;5020784;28;20458;-52
2023/10/29 10:19:36;;;;;;;0.30;0.20;;;;;;;17.14;94.89;98600.25;5034316;28;20506;-52
2023/10/29 10:22:06;;;;;;;0.30;0.20;;;;;;;16.97;95.66;98622.22;5021979;28;20559;-50
2023/10/29 10:24:43;;;;;;;0.30;0.20;;;;;;;16.90;95.97;98610.31;5027576;28;20922;-50
2023/10/29 10:27:12;;;;;;;0.30;0.20;;;;;;;16.85;95.77;98606.13;5011393;28;20569;-50
2023/10/29 10:29:39;;;;;;;0.40;0.20;;;;;;;16.82;95.77;98592.97;5034119;28;20448;-50
2023/10/29 10:32:06;;;;;;;0.40;0.20;;;;;;;16.87;96.25;98577.38;5034172;28;20472;-50
2023/10/29 10:34:34;;;;;;;0.40;0.20;;;;;;;16.80;98.11;98600.31;5033299;28;20519;-50
2023/10/29 10:37:02;;;;;;;0.30;0.20;;;;;;;17.05;97.73;98604.53;5020957;28;20467;-51
2023/10/29 10:39:31;;;;;;;0.30;0.20;;;;;;;16.84;97.65;98617.00;5026793;28;20953;-50
2023/10/29 10:42:00;;;;;;;0.30;0.20;;;;;;;16.63;98.09;98610.66;5034070;28;20480;-51
2023/10/29 10:44:31;;;;;;;0.30;0.20;;;;;;;16.65;98.48;98601.50;5033934;28;20430;-51
2023/10/29 10:46:59;;;;;;;0.30;0.20;;;;;;;16.68;99.50;98601.28;5022284;28;20453;-51
2023/10/29 10:49:31;;;;;;;0.40;0.20;;;;;;;16.94;99.66;98585.75;5032043;28;20498;-52
2023/10/29 10:51:59;;;;;;;0.30;0.20;;;;;;;17.05;99.05;98591.09;5014871;28;20487;-51
2023/10/29 10:54:26;;;;;;;0.30;0.20;;;;;;;17.05;99.37;98587.56;5027617;28;20905;-50
2023/10/29 10:56:55;;;;;;;0.30;0.20;;;;;;;17.27;99.38;98602.72;5025574;28;20473;-51
2023/10/29 10:59:22;;;;;;;0.30;0.20;;;;;;;16.99;99.62;98604.16;5031924;28;20464;-51
2023/10/29 11:01:50;;;;;;;0.30;0.20;;;;;;;16.86;98.80;98602.50;5033849;28;20458;-51
2023/10/29 11:04:18;;;;;;;0.30;0.20;;;;;;;16.75;98.84;98602.53;5022288;28;20473;-51
2023/10/29 11:06:46;;;;;;;0.30;0.20;;;;;;;16.90;100.00;98594.19;5014416;28;20452;-50
2023/10/29 11:09:14;;;;;;;0.40;0.20;;;;;;;16.99;99.44;98585.38;5012380;28;20448;-51
2023/10/29 11:11:50;;;;;;;0.33;0.20;;;;;;;17.05;100.00;98582.19;5033124;28;20447;-51
2023/10/29 11:14:18;;;;;;;0.40;0.20;;;;;;;17.17;100.00;98587.41;5024876;28;20527;-51
2023/10/29 11:16:52;;;;;;;0.30;0.20;;;;;;;17.31;99.37;98585.41;5015806;28;20542;-51
2023/10/29 11:19:44;;;;;;;0.37;0.20;;;;;;;17.16;99.38;98607.19;5017969;28;20427;-51
2023/10/29 11:22:14;;;;;;;0.33;0.20;;;;;;;17.01;98.54;98610.28;5014254;28;20455;-51
2023/10/29 11:24:41;;;;;;;0.30;0.20;;;;;;;16.83;99.63;98624.19;5018659;28;20606;-51
2023/10/29 11:27:33;;;;;;;0.30;0.20;;;;;;;16.67;99.19;98623.75;5031050;28;20452;-51
2023/10/29 11:30:29;;;;;;;0.30;0.20;;;;;;;16.67;99.54;98639.84;5032908;28;20447;-50